sensor_id;sensor_type;location;lat;lon;timestamp;P1;durP1;ratioP1;P2;durP2;ratioP2
2860;SDS011;1438;50.922;6.704;2023-08-06T00:00:09;5.33;;;4.17;;
2860;SDS011;1438;50.922;6.704;2023-08-06T00:02:35;7.27;;;4.00;;
2860;SDS011;1438;50.922;6.704;2023-08-06T00:05:01;4.23;;;3.20;;
2860;SDS011;1438;50.922;6.704;2023-08-06T00:07:27;4.20;;;3.80;;
2860;SDS011;1438;50.922;6.704;2023-08-06T00:09:53;4.53;;;4.00;;
2860;SDS011;1438;50.922;6.704;2023-08-06T00:12:19;5.10;;;3.93;;
2860;SDS011;1438;50.922;6.704;2023-08-06T00:14:44;4.00;;;3.60;;
2860;SDS011;1438;50.922;6.704;2023-08-06T00:17:10;4.40;;;3.20;;
2860;SDS011;1438;50.922;6.704;2023-08-06T00:19:35;4.43;;;3.43;;
2860;SDS011;1438;50.922;6.704;2023-08-06T00:22:01;5.57;;;4.20;;
2860;SDS011;1438;50.922;6.704;2023-08-06T00:24:27;5.20;;;3.60;;
2860;SDS011;1438;50.922;6.704;2023-08-06T00:26:53;4.17;;;3.10;;
2860;SDS011;1438;50.922;6.704;2023-08-06T00:29:18;4.77;;;3.40;;
2860;SDS011;1438;50.922;6.704;2023-08-06T00:31:44;4.83;;;3.63;;
2860;SDS011;1438;50.922;6.704;2023-08-06T00:34:09;5.20;;;3.90;;
2860;SDS011;1438;50.922;6.704;2023-08-06T00:36:35;6.17;;;3.90;;
2860;SDS011;1438;50.922;6.704;2023-08-06T00:39:01;10.83;;;3.20;;
2860;SDS011;1438;50.922;6.704;2023-08-06T00:41:27;6.93;;;3.73;;
2860;SDS011;1438;50.922;6.704;2023-08-06T00:43:52;4.43;;;3.43;;
2860;SDS011;1438;50.922;6.704;2023-08-06T00:46:18;5.43;;;3.23;;
2860;SDS011;1438;50.922;6.704;2023-08-06T00:48:44;3.97;;;3.57;;
2860;SDS011;1438;50.922;6.704;2023-08-06T00:51:10;5.10;;;4.03;;
2860;SDS011;1438;50.922;6.704;2023-08-06T00:53:37;4.23;;;3.80;;
2860;SDS011;1438;50.922;6.704;2023-08-06T00:56:03;6.83;;;4.60;;
2860;SDS011;1438;50.922;6.704;2023-08-06T00:58:29;4.87;;;3.60;;
2860;SDS011;1438;50.922;6.704;2023-08-06T01:00:55;4.37;;;3.63;;
2860;SDS011;1438;50.922;6.704;2023-08-06T01:03:21;4.03;;;3.17;;
2860;SDS011;1438;50.922;6.704;2023-08-06T01:05:46;7.63;;;2.83;;
2860;SDS011;1438;50.922;6.704;2023-08-06T01:08:38;5.20;;;3.00;;
2860;SDS011;1438;50.922;6.704;2023-08-06T01:14:02;4.80;;;3.20;;
2860;SDS011;1438;50.922;6.704;2023-08-06T01:16:32;6.43;;;2.80;;
2860;SDS011;1438;50.922;6.704;2023-08-06T01:18:59;3.37;;;3.00;;
2860;SDS011;1438;50.922;6.704;2023-08-06T01:21:25;3.33;;;3.03;;
2860;SDS011;1438;50.922;6.704;2023-08-06T01:23:50;4.67;;;3.30;;
2860;SDS011;1438;50.922;6.704;2023-08-06T01:26:51;3.83;;;2.77;;
2860;SDS011;1438;50.922;6.704;2023-08-06T01:29:15;5.27;;;3.10;;
2860;SDS011;1438;50.922;6.704;2023-08-06T01:31:53;4.80;;;3.13;;
2860;SDS011;1438;50.922;6.704;2023-08-06T01:34:21;3.67;;;3.07;;
2860;SDS011;1438;50.922;6.704;2023-08-06T01:36:50;3.97;;;3.00;;
2860;SDS011;1438;50.922;6.704;2023-08-06T01:39:16;7.10;;;2.80;;
2860;SDS011;1438;50.922;6.704;2023-08-06T01:41:42;2.80;;;2.47;;
2860;SDS011;1438;50.922;6.704;2023-08-06T01:44:07;2.90;;;2.60;;
2860;SDS011;1438;50.922;6.704;2023-08-06T01:46:33;3.90;;;2.83;;
2860;SDS011;1438;50.922;6.704;2023-08-06T01:48:58;5.30;;;2.67;;
2860;SDS011;1438;50.922;6.704;2023-08-06T01:51:24;6.00;;;3.10;;
2860;SDS011;1438;50.922;6.704;2023-08-06T01:53:49;3.80;;;2.00;;
2860;SDS011;1438;50.922;6.704;2023-08-06T01:56:15;3.60;;;2.80;;
2860;SDS011;1438;50.922;6.704;2023-08-06T01:58:41;8.13;;;3.37;;
2860;SDS011;1438;50.922;6.704;2023-08-06T02:01:06;5.43;;;2.57;;
2860;SDS011;1438;50.922;6.704;2023-08-06T02:03:32;2.53;;;2.33;;
2860;SDS011;1438;50.922;6.704;2023-08-06T02:05:57;3.13;;;2.50;;
2860;SDS011;1438;50.922;6.704;2023-08-06T02:08:23;4.20;;;2.83;;
2860;SDS011;1438;50.922;6.704;2023-08-06T02:10:48;3.30;;;3.00;;
2860;SDS011;1438;50.922;6.704;2023-08-06T02:13:14;4.07;;;2.50;;
2860;SDS011;1438;50.922;6.704;2023-08-06T02:15:43;4.37;;;2.60;;
2860;SDS011;1438;50.922;6.704;2023-08-06T02:18:09;3.10;;;2.17;;
2860;SDS011;1438;50.922;6.704;2023-08-06T02:20:35;3.10;;;2.33;;
2860;SDS011;1438;50.922;6.704;2023-08-06T02:23:00;3.77;;;2.33;;
2860;SDS011;1438;50.922;6.704;2023-08-06T02:25:26;2.77;;;2.30;;
2860;SDS011;1438;50.922;6.704;2023-08-06T02:27:51;3.17;;;2.30;;
2860;SDS011;1438;50.922;6.704;2023-08-06T02:30:17;4.23;;;2.57;;
2860;SDS011;1438;50.922;6.704;2023-08-06T02:32:42;5.30;;;2.60;;
2860;SDS011;1438;50.922;6.704;2023-08-06T02:35:08;3.20;;;2.17;;
2860;SDS011;1438;50.922;6.704;2023-08-06T02:37:34;3.13;;;2.37;;
2860;SDS011;1438;50.922;6.704;2023-08-06T02:40:00;5.07;;;2.70;;
2860;SDS011;1438;50.922;6.704;2023-08-06T02:42:25;2.67;;;2.47;;
2860;SDS011;1438;50.922;6.704;2023-08-06T02:44:52;4.57;;;3.10;;
2860;SDS011;1438;50.922;6.704;2023-08-06T02:47:20;2.60;;;1.90;;
2860;SDS011;1438;50.922;6.704;2023-08-06T02:49:46;3.07;;;2.50;;
2860;SDS011;1438;50.922;6.704;2023-08-06T02:52:11;3.27;;;2.10;;
2860;SDS011;1438;50.922;6.704;2023-08-06T02:54:37;3.40;;;2.50;;
2860;SDS011;1438;50.922;6.704;2023-08-06T02:57:03;2.93;;;2.43;;
2860;SDS011;1438;50.922;6.704;2023-08-06T02:59:29;3.07;;;2.40;;
2860;SDS011;1438;50.922;6.704;2023-08-06T03:01:55;7.47;;;2.77;;
2860;SDS011;1438;50.922;6.704;2023-08-06T03:04:21;5.47;;;2.40;;
2860;SDS011;1438;50.922;6.704;2023-08-06T03:06:46;7.20;;;3.10;;
2860;SDS011;1438;50.922;6.704;2023-08-06T03:09:14;3.93;;;2.43;;
2860;SDS011;1438;50.922;6.704;2023-08-06T03:11:39;7.13;;;2.10;;
2860;SDS011;1438;50.922;6.704;2023-08-06T03:14:05;3.10;;;2.30;;
2860;SDS011;1438;50.922;6.704;2023-08-06T03:16:30;4.17;;;2.70;;
2860;SDS011;1438;50.922;6.704;2023-08-06T03:18:56;2.30;;;1.97;;
2860;SDS011;1438;50.922;6.704;2023-08-06T03:21:21;6.23;;;2.40;;
2860;SDS011;1438;50.922;6.704;2023-08-06T03:23:47;3.07;;;2.03;;
2860;SDS011;1438;50.922;6.704;2023-08-06T03:26:13;2.73;;;2.43;;
2860;SDS011;1438;50.922;6.704;2023-08-06T03:28:39;4.73;;;2.30;;
2860;SDS011;1438;50.922;6.704;2023-08-06T03:31:06;7.00;;;2.60;;
2860;SDS011;1438;50.922;6.704;2023-08-06T03:33:31;4.57;;;2.50;;
2860;SDS011;1438;50.922;6.704;2023-08-06T03:35:57;4.57;;;2.23;;
2860;SDS011;1438;50.922;6.704;2023-08-06T03:38:22;5.93;;;3.30;;
2860;SDS011;1438;50.922;6.704;2023-08-06T03:40:48;4.90;;;3.23;;
2860;SDS011;1438;50.922;6.704;2023-08-06T03:43:14;10.20;;;2.77;;
2860;SDS011;1438;50.922;6.704;2023-08-06T03:45:40;3.73;;;2.70;;
2860;SDS011;1438;50.922;6.704;2023-08-06T03:48:06;5.00;;;2.80;;
2860;SDS011;1438;50.922;6.704;2023-08-06T03:50:33;5.50;;;3.10;;
2860;SDS011;1438;50.922;6.704;2023-08-06T03:52:58;8.07;;;3.03;;
2860;SDS011;1438;50.922;6.704;2023-08-06T03:55:24;4.27;;;2.90;;
2860;SDS011;1438;50.922;6.704;2023-08-06T03:57:49;4.90;;;3.10;;
2860;SDS011;1438;50.922;6.704;2023-08-06T04:00:15;6.40;;;3.30;;
2860;SDS011;1438;50.922;6.704;2023-08-06T04:02:41;4.33;;;2.90;;
2860;SDS011;1438;50.922;6.704;2023-08-06T04:05:06;7.90;;;3.43;;
2860;SDS011;1438;50.922;6.704;2023-08-06T04:07:32;4.67;;;2.90;;
2860;SDS011;1438;50.922;6.704;2023-08-06T04:09:59;4.50;;;3.27;;
2860;SDS011;1438;50.922;6.704;2023-08-06T04:12:26;9.10;;;2.83;;
2860;SDS011;1438;50.922;6.704;2023-08-06T04:14:52;7.53;;;3.90;;
2860;SDS011;1438;50.922;6.704;2023-08-06T04:17:18;5.67;;;3.33;;
2860;SDS011;1438;50.922;6.704;2023-08-06T04:19:48;8.60;;;3.83;;
2860;SDS011;1438;50.922;6.704;2023-08-06T04:22:18;5.30;;;3.10;;
2860;SDS011;1438;50.922;6.704;2023-08-06T04:24:44;4.70;;;3.07;;
2860;SDS011;1438;50.922;6.704;2023-08-06T04:27:10;8.00;;;3.20;;
2860;SDS011;1438;50.922;6.704;2023-08-06T04:29:36;6.00;;;3.60;;
2860;SDS011;1438;50.922;6.704;2023-08-06T04:32:03;3.87;;;3.33;;
2860;SDS011;1438;50.922;6.704;2023-08-06T04:34:29;6.70;;;3.60;;
2860;SDS011;1438;50.922;6.704;2023-08-06T04:36:54;4.70;;;3.40;;
2860;SDS011;1438;50.922;6.704;2023-08-06T04:39:20;7.97;;;3.53;;
2860;SDS011;1438;50.922;6.704;2023-08-06T04:41:45;7.80;;;3.60;;
2860;SDS011;1438;50.922;6.704;2023-08-06T04:44:11;5.13;;;3.67;;
2860;SDS011;1438;50.922;6.704;2023-08-06T04:46:36;5.57;;;3.87;;
2860;SDS011;1438;50.922;6.704;2023-08-06T04:49:02;7.60;;;4.23;;
2860;SDS011;1438;50.922;6.704;2023-08-06T04:51:28;5.30;;;3.77;;
2860;SDS011;1438;50.922;6.704;2023-08-06T04:53:53;7.50;;;4.40;;
2860;SDS011;1438;50.922;6.704;2023-08-06T04:56:19;4.73;;;3.90;;
2860;SDS011;1438;50.922;6.704;2023-08-06T04:58:44;4.83;;;4.07;;
2860;SDS011;1438;50.922;6.704;2023-08-06T05:01:10;5.77;;;5.17;;
2860;SDS011;1438;50.922;6.704;2023-08-06T05:03:35;5.60;;;5.00;;
2860;SDS011;1438;50.922;6.704;2023-08-06T05:06:01;7.00;;;4.87;;
2860;SDS011;1438;50.922;6.704;2023-08-06T05:08:26;8.00;;;4.77;;
2860;SDS011;1438;50.922;6.704;2023-08-06T05:10:52;5.47;;;4.60;;
2860;SDS011;1438;50.922;6.704;2023-08-06T05:13:17;6.20;;;5.50;;
2860;SDS011;1438;50.922;6.704;2023-08-06T05:15:43;7.77;;;4.63;;
2860;SDS011;1438;50.922;6.704;2023-08-06T05:18:11;5.67;;;5.07;;
2860;SDS011;1438;50.922;6.704;2023-08-06T05:20:37;5.73;;;4.13;;
2860;SDS011;1438;50.922;6.704;2023-08-06T05:23:03;4.60;;;4.20;;
2860;SDS011;1438;50.922;6.704;2023-08-06T05:25:29;6.30;;;4.40;;
2860;SDS011;1438;50.922;6.704;2023-08-06T05:27:55;5.60;;;4.47;;
2860;SDS011;1438;50.922;6.704;2023-08-06T05:30:20;6.83;;;4.60;;
2860;SDS011;1438;50.922;6.704;2023-08-06T05:32:46;7.07;;;4.73;;
2860;SDS011;1438;50.922;6.704;2023-08-06T05:35:12;6.57;;;4.97;;
2860;SDS011;1438;50.922;6.704;2023-08-06T05:37:37;4.73;;;3.63;;
2860;SDS011;1438;50.922;6.704;2023-08-06T05:40:03;4.93;;;4.43;;
2860;SDS011;1438;50.922;6.704;2023-08-06T05:42:29;11.57;;;4.77;;
2860;SDS011;1438;50.922;6.704;2023-08-06T05:44:55;8.13;;;3.37;;
2860;SDS011;1438;50.922;6.704;2023-08-06T05:47:20;6.37;;;4.67;;
2860;SDS011;1438;50.922;6.704;2023-08-06T05:49:46;4.07;;;3.67;;
2860;SDS011;1438;50.922;6.704;2023-08-06T05:52:12;4.60;;;4.20;;
2860;SDS011;1438;50.922;6.704;2023-08-06T05:54:37;7.20;;;4.17;;
2860;SDS011;1438;50.922;6.704;2023-08-06T05:57:03;9.63;;;4.00;;
2860;SDS011;1438;50.922;6.704;2023-08-06T05:59:29;6.77;;;4.20;;
2860;SDS011;1438;50.922;6.704;2023-08-06T06:01:54;4.67;;;3.70;;
2860;SDS011;1438;50.922;6.704;2023-08-06T06:04:21;3.77;;;3.10;;
2860;SDS011;1438;50.922;6.704;2023-08-06T06:06:46;4.87;;;3.93;;
2860;SDS011;1438;50.922;6.704;2023-08-06T06:09:12;4.53;;;3.07;;
2860;SDS011;1438;50.922;6.704;2023-08-06T06:11:38;7.20;;;3.60;;
2860;SDS011;1438;50.922;6.704;2023-08-06T06:14:04;8.40;;;3.37;;
2860;SDS011;1438;50.922;6.704;2023-08-06T06:16:30;4.77;;;3.00;;
2860;SDS011;1438;50.922;6.704;2023-08-06T06:18:55;3.73;;;2.93;;
2860;SDS011;1438;50.922;6.704;2023-08-06T06:21:22;3.60;;;2.90;;
2860;SDS011;1438;50.922;6.704;2023-08-06T06:23:48;4.00;;;2.83;;
2860;SDS011;1438;50.922;6.704;2023-08-06T06:26:14;4.33;;;2.60;;
2860;SDS011;1438;50.922;6.704;2023-08-06T06:28:40;2.47;;;2.13;;
2860;SDS011;1438;50.922;6.704;2023-08-06T06:31:05;3.30;;;2.63;;
2860;SDS011;1438;50.922;6.704;2023-08-06T06:33:31;2.77;;;2.40;;
2860;SDS011;1438;50.922;6.704;2023-08-06T06:35:56;2.43;;;2.23;;
2860;SDS011;1438;50.922;6.704;2023-08-06T06:38:22;3.33;;;2.23;;
2860;SDS011;1438;50.922;6.704;2023-08-06T06:41:05;2.33;;;2.00;;
2860;SDS011;1438;50.922;6.704;2023-08-06T06:43:31;3.60;;;2.60;;
2860;SDS011;1438;50.922;6.704;2023-08-06T06:46:00;3.10;;;2.27;;
2860;SDS011;1438;50.922;6.704;2023-08-06T06:48:27;6.70;;;2.40;;
2860;SDS011;1438;50.922;6.704;2023-08-06T06:50:54;2.63;;;1.93;;
2860;SDS011;1438;50.922;6.704;2023-08-06T06:53:20;3.37;;;2.70;;
2860;SDS011;1438;50.922;6.704;2023-08-06T06:55:52;3.93;;;2.50;;
2860;SDS011;1438;50.922;6.704;2023-08-06T06:58:20;2.30;;;2.10;;
2860;SDS011;1438;50.922;6.704;2023-08-06T07:00:47;5.50;;;2.47;;
2860;SDS011;1438;50.922;6.704;2023-08-06T07:03:13;4.00;;;2.60;;
2860;SDS011;1438;50.922;6.704;2023-08-06T07:05:39;3.63;;;3.20;;
2860;SDS011;1438;50.922;6.704;2023-08-06T07:08:05;2.70;;;2.50;;
2860;SDS011;1438;50.922;6.704;2023-08-06T07:10:31;4.90;;;2.77;;
2860;SDS011;1438;50.922;6.704;2023-08-06T07:12:56;2.60;;;2.40;;
2860;SDS011;1438;50.922;6.704;2023-08-06T07:15:22;2.83;;;2.63;;
2860;SDS011;1438;50.922;6.704;2023-08-06T07:17:47;6.73;;;3.47;;
2860;SDS011;1438;50.922;6.704;2023-08-06T07:20:13;4.50;;;3.70;;
2860;SDS011;1438;50.922;6.704;2023-08-06T07:22:39;4.47;;;3.30;;
2860;SDS011;1438;50.922;6.704;2023-08-06T07:25:04;7.23;;;4.77;;
2860;SDS011;1438;50.922;6.704;2023-08-06T07:27:30;4.23;;;3.83;;
2860;SDS011;1438;50.922;6.704;2023-08-06T07:29:56;4.83;;;3.63;;
2860;SDS011;1438;50.922;6.704;2023-08-06T07:32:23;3.97;;;3.57;;
2860;SDS011;1438;50.922;6.704;2023-08-06T07:34:49;5.13;;;3.33;;
2860;SDS011;1438;50.922;6.704;2023-08-06T07:37:14;4.27;;;3.50;;
2860;SDS011;1438;50.922;6.704;2023-08-06T07:39:40;4.27;;;3.87;;
2860;SDS011;1438;50.922;6.704;2023-08-06T07:42:07;7.07;;;3.87;;
2860;SDS011;1438;50.922;6.704;2023-08-06T07:44:33;5.30;;;4.00;;
2860;SDS011;1438;50.922;6.704;2023-08-06T07:46:58;4.23;;;3.87;;
2860;SDS011;1438;50.922;6.704;2023-08-06T07:49:24;4.77;;;3.50;;
2860;SDS011;1438;50.922;6.704;2023-08-06T07:51:49;4.37;;;3.70;;
2860;SDS011;1438;50.922;6.704;2023-08-06T07:54:16;3.70;;;3.40;;
2860;SDS011;1438;50.922;6.704;2023-08-06T07:56:42;4.33;;;3.47;;
2860;SDS011;1438;50.922;6.704;2023-08-06T07:59:08;4.63;;;3.90;;
2860;SDS011;1438;50.922;6.704;2023-08-06T08:01:34;4.63;;;4.23;;
2860;SDS011;1438;50.922;6.704;2023-08-06T08:03:59;4.70;;;4.30;;
2860;SDS011;1438;50.922;6.704;2023-08-06T08:06:25;5.03;;;4.50;;
2860;SDS011;1438;50.922;6.704;2023-08-06T08:08:51;4.90;;;4.30;;
2860;SDS011;1438;50.922;6.704;2023-08-06T08:11:17;6.77;;;4.23;;
2860;SDS011;1438;50.922;6.704;2023-08-06T08:13:43;3.80;;;3.50;;
2860;SDS011;1438;50.922;6.704;2023-08-06T08:16:09;3.73;;;3.43;;
2860;SDS011;1438;50.922;6.704;2023-08-06T08:18:35;3.30;;;3.00;;
2860;SDS011;1438;50.922;6.704;2023-08-06T08:21:00;2.77;;;2.57;;
2860;SDS011;1438;50.922;6.704;2023-08-06T08:23:26;2.73;;;2.53;;
2860;SDS011;1438;50.922;6.704;2023-08-06T08:25:51;2.53;;;2.33;;
2860;SDS011;1438;50.922;6.704;2023-08-06T08:28:17;2.97;;;2.53;;
2860;SDS011;1438;50.922;6.704;2023-08-06T08:30:42;2.23;;;1.97;;
2860;SDS011;1438;50.922;6.704;2023-08-06T08:33:08;3.00;;;2.07;;
2860;SDS011;1438;50.922;6.704;2023-08-06T08:35:34;2.50;;;2.27;;
2860;SDS011;1438;50.922;6.704;2023-08-06T08:38:01;2.73;;;1.60;;
2860;SDS011;1438;50.922;6.704;2023-08-06T08:40:29;1.97;;;1.87;;
2860;SDS011;1438;50.922;6.704;2023-08-06T08:42:56;1.63;;;1.53;;
2860;SDS011;1438;50.922;6.704;2023-08-06T08:45:23;1.50;;;1.40;;
2860;SDS011;1438;50.922;6.704;2023-08-06T08:47:53;1.50;;;1.40;;
2860;SDS011;1438;50.922;6.704;2023-08-06T08:50:19;2.10;;;1.20;;
2860;SDS011;1438;50.922;6.704;2023-08-06T08:52:46;1.63;;;1.30;;
2860;SDS011;1438;50.922;6.704;2023-08-06T08:55:14;6.37;;;1.50;;
2860;SDS011;1438;50.922;6.704;2023-08-06T08:57:41;1.47;;;1.37;;
2860;SDS011;1438;50.922;6.704;2023-08-06T09:00:07;1.70;;;1.60;;
2860;SDS011;1438;50.922;6.704;2023-08-06T09:02:33;2.60;;;1.33;;
2860;SDS011;1438;50.922;6.704;2023-08-06T09:05:02;2.70;;;1.93;;
2860;SDS011;1438;50.922;6.704;2023-08-06T09:07:33;2.70;;;1.70;;
2860;SDS011;1438;50.922;6.704;2023-08-06T09:10:03;2.43;;;2.23;;
2860;SDS011;1438;50.922;6.704;2023-08-06T09:12:29;2.13;;;1.93;;
2860;SDS011;1438;50.922;6.704;2023-08-06T09:14:55;3.00;;;2.43;;
2860;SDS011;1438;50.922;6.704;2023-08-06T09:17:21;3.40;;;2.73;;
2860;SDS011;1438;50.922;6.704;2023-08-06T09:19:46;3.07;;;2.87;;
2860;SDS011;1438;50.922;6.704;2023-08-06T09:22:13;4.80;;;4.40;;
2860;SDS011;1438;50.922;6.704;2023-08-06T09:24:40;4.97;;;4.50;;
2860;SDS011;1438;50.922;6.704;2023-08-06T09:27:15;4.73;;;4.10;;
2860;SDS011;1438;50.922;6.704;2023-08-06T09:29:42;5.20;;;4.70;;
2860;SDS011;1438;50.922;6.704;2023-08-06T09:32:08;4.20;;;3.80;;
2860;SDS011;1438;50.922;6.704;2023-08-06T09:34:34;3.80;;;3.50;;
2860;SDS011;1438;50.922;6.704;2023-08-06T09:36:59;5.37;;;3.10;;
2860;SDS011;1438;50.922;6.704;2023-08-06T09:39:28;3.47;;;2.53;;
2860;SDS011;1438;50.922;6.704;2023-08-06T09:41:56;3.30;;;2.10;;
2860;SDS011;1438;50.922;6.704;2023-08-06T09:44:24;2.03;;;1.83;;
2860;SDS011;1438;50.922;6.704;2023-08-06T09:46:51;1.40;;;1.00;;
2860;SDS011;1438;50.922;6.704;2023-08-06T09:49:18;1.73;;;1.10;;
2860;SDS011;1438;50.922;6.704;2023-08-06T09:51:45;1.03;;;0.90;;
2860;SDS011;1438;50.922;6.704;2023-08-06T09:54:15;2.00;;;1.37;;
2860;SDS011;1438;50.922;6.704;2023-08-06T09:56:42;1.97;;;1.17;;
2860;SDS011;1438;50.922;6.704;2023-08-06T09:59:08;1.77;;;1.47;;
2860;SDS011;1438;50.922;6.704;2023-08-06T10:01:34;1.50;;;1.30;;
2860;SDS011;1438;50.922;6.704;2023-08-06T10:04:04;1.60;;;1.50;;
2860;SDS011;1438;50.922;6.704;2023-08-06T10:06:35;1.57;;;1.47;;
2860;SDS011;1438;50.922;6.704;2023-08-06T10:09:02;1.80;;;1.67;;
2860;SDS011;1438;50.922;6.704;2023-08-06T10:11:28;5.33;;;2.40;;
2860;SDS011;1438;50.922;6.704;2023-08-06T10:13:56;3.30;;;2.23;;
2860;SDS011;1438;50.922;6.704;2023-08-06T10:16:30;2.80;;;2.03;;
2860;SDS011;1438;50.922;6.704;2023-08-06T10:18:57;5.50;;;3.47;;
2860;SDS011;1438;50.922;6.704;2023-08-06T10:21:24;7.10;;;3.63;;
2860;SDS011;1438;50.922;6.704;2023-08-06T10:23:55;5.50;;;4.07;;
2860;SDS011;1438;50.922;6.704;2023-08-06T10:26:24;5.23;;;3.80;;
2860;SDS011;1438;50.922;6.704;2023-08-06T10:28:53;8.80;;;3.60;;
2860;SDS011;1438;50.922;6.704;2023-08-06T10:31:20;7.13;;;4.40;;
2860;SDS011;1438;50.922;6.704;2023-08-06T10:34:05;6.97;;;4.30;;
2860;SDS011;1438;50.922;6.704;2023-08-06T10:36:32;9.67;;;3.37;;
2860;SDS011;1438;50.922;6.704;2023-08-06T10:38:58;8.23;;;3.80;;
2860;SDS011;1438;50.922;6.704;2023-08-06T10:43:57;5.03;;;4.20;;
2860;SDS011;1438;50.922;6.704;2023-08-06T10:46:32;4.93;;;3.40;;
2860;SDS011;1438;50.922;6.704;2023-08-06T10:48:57;6.37;;;4.13;;
2860;SDS011;1438;50.922;6.704;2023-08-06T10:51:24;8.37;;;4.37;;
2860;SDS011;1438;50.922;6.704;2023-08-06T10:53:50;10.50;;;5.17;;
2860;SDS011;1438;50.922;6.704;2023-08-06T10:56:17;5.80;;;3.60;;
2860;SDS011;1438;50.922;6.704;2023-08-06T10:58:44;9.43;;;4.47;;
2860;SDS011;1438;50.922;6.704;2023-08-06T11:01:11;6.00;;;3.30;;
2860;SDS011;1438;50.922;6.704;2023-08-06T11:03:37;7.77;;;3.30;;
2860;SDS011;1438;50.922;6.704;2023-08-06T11:06:03;6.33;;;3.83;;
2860;SDS011;1438;50.922;6.704;2023-08-06T11:08:33;7.80;;;2.97;;
2860;SDS011;1438;50.922;6.704;2023-08-06T11:11:12;7.60;;;3.40;;
2860;SDS011;1438;50.922;6.704;2023-08-06T11:13:42;8.30;;;3.60;;
2860;SDS011;1438;50.922;6.704;2023-08-06T11:16:29;10.40;;;5.50;;
2860;SDS011;1438;50.922;6.704;2023-08-06T11:18:55;3.27;;;2.20;;
2860;SDS011;1438;50.922;6.704;2023-08-06T11:21:22;6.87;;;3.17;;
2860;SDS011;1438;50.922;6.704;2023-08-06T11:23:49;10.63;;;3.40;;
2860;SDS011;1438;50.922;6.704;2023-08-06T11:26:19;5.80;;;3.67;;
2860;SDS011;1438;50.922;6.704;2023-08-06T11:28:45;4.63;;;2.17;;
2860;SDS011;1438;50.922;6.704;2023-08-06T11:31:18;9.80;;;2.30;;
2860;SDS011;1438;50.922;6.704;2023-08-06T11:33:48;6.17;;;2.40;;
2860;SDS011;1438;50.922;6.704;2023-08-06T11:36:15;7.60;;;2.20;;
2860;SDS011;1438;50.922;6.704;2023-08-06T11:38:41;2.73;;;2.20;;
2860;SDS011;1438;50.922;6.704;2023-08-06T11:41:06;4.70;;;2.37;;
2860;SDS011;1438;50.922;6.704;2023-08-06T11:43:32;4.93;;;2.40;;
2860;SDS011;1438;50.922;6.704;2023-08-06T11:45:58;5.07;;;2.17;;
2860;SDS011;1438;50.922;6.704;2023-08-06T11:48:25;13.53;;;2.73;;
2860;SDS011;1438;50.922;6.704;2023-08-06T11:50:53;6.63;;;2.37;;
2860;SDS011;1438;50.922;6.704;2023-08-06T11:53:19;3.47;;;2.40;;
2860;SDS011;1438;50.922;6.704;2023-08-06T11:55:45;6.83;;;2.40;;
2860;SDS011;1438;50.922;6.704;2023-08-06T11:58:10;3.97;;;2.40;;
2860;SDS011;1438;50.922;6.704;2023-08-06T12:00:39;6.07;;;2.50;;
2860;SDS011;1438;50.922;6.704;2023-08-06T12:03:05;5.37;;;2.57;;
2860;SDS011;1438;50.922;6.704;2023-08-06T12:05:31;10.63;;;3.33;;
2860;SDS011;1438;50.922;6.704;2023-08-06T12:08:01;4.03;;;2.60;;
2860;SDS011;1438;50.922;6.704;2023-08-06T12:10:28;9.47;;;2.70;;
2860;SDS011;1438;50.922;6.704;2023-08-06T12:12:55;3.50;;;2.53;;
2860;SDS011;1438;50.922;6.704;2023-08-06T12:15:21;3.87;;;2.50;;
2860;SDS011;1438;50.922;6.704;2023-08-06T12:17:47;6.30;;;2.80;;
2860;SDS011;1438;50.922;6.704;2023-08-06T12:20:13;8.40;;;2.80;;
2860;SDS011;1438;50.922;6.704;2023-08-06T12:22:39;4.43;;;2.53;;
2860;SDS011;1438;50.922;6.704;2023-08-06T12:25:05;5.50;;;2.20;;
2860;SDS011;1438;50.922;6.704;2023-08-06T12:27:36;3.97;;;1.93;;
2860;SDS011;1438;50.922;6.704;2023-08-06T12:30:02;7.23;;;2.00;;
2860;SDS011;1438;50.922;6.704;2023-08-06T12:32:28;3.67;;;2.27;;
2860;SDS011;1438;50.922;6.704;2023-08-06T12:34:54;2.80;;;1.93;;
2860;SDS011;1438;50.922;6.704;2023-08-06T12:37:20;7.37;;;2.80;;
2860;SDS011;1438;50.922;6.704;2023-08-06T12:39:46;4.43;;;2.20;;
2860;SDS011;1438;50.922;6.704;2023-08-06T12:42:11;3.17;;;2.37;;
2860;SDS011;1438;50.922;6.704;2023-08-06T12:44:37;5.67;;;2.83;;
2860;SDS011;1438;50.922;6.704;2023-08-06T12:47:03;3.37;;;2.40;;
2860;SDS011;1438;50.922;6.704;2023-08-06T12:49:28;5.30;;;2.73;;
2860;SDS011;1438;50.922;6.704;2023-08-06T12:51:55;3.80;;;2.30;;
2860;SDS011;1438;50.922;6.704;2023-08-06T12:54:21;5.10;;;2.90;;
2860;SDS011;1438;50.922;6.704;2023-08-06T12:56:48;5.60;;;2.97;;
2860;SDS011;1438;50.922;6.704;2023-08-06T12:59:14;8.77;;;2.20;;
2860;SDS011;1438;50.922;6.704;2023-08-06T13:01:41;4.37;;;2.40;;
2860;SDS011;1438;50.922;6.704;2023-08-06T13:04:06;4.70;;;3.47;;
2860;SDS011;1438;50.922;6.704;2023-08-06T13:06:32;3.30;;;3.00;;
2860;SDS011;1438;50.922;6.704;2023-08-06T13:09:05;3.10;;;2.90;;
2860;SDS011;1438;50.922;6.704;2023-08-06T13:11:32;5.60;;;3.83;;
2860;SDS011;1438;50.922;6.704;2023-08-06T13:14:31;6.13;;;3.20;;
2860;SDS011;1438;50.922;6.704;2023-08-06T13:16:50;8.07;;;4.47;;
2860;SDS011;1438;50.922;6.704;2023-08-06T13:19:15;3.73;;;3.30;;
2860;SDS011;1438;50.922;6.704;2023-08-06T13:24:07;8.83;;;4.20;;
2860;SDS011;1438;50.922;6.704;2023-08-06T13:26:33;5.73;;;4.33;;
2860;SDS011;1438;50.922;6.704;2023-08-06T13:28:59;5.80;;;4.30;;
2860;SDS011;1438;50.922;6.704;2023-08-06T13:31:26;7.60;;;4.87;;
2860;SDS011;1438;50.922;6.704;2023-08-06T13:33:52;5.70;;;3.70;;
2860;SDS011;1438;50.922;6.704;2023-08-06T13:36:20;9.67;;;4.07;;
2860;SDS011;1438;50.922;6.704;2023-08-06T13:38:46;4.73;;;3.20;;
2860;SDS011;1438;50.922;6.704;2023-08-06T13:41:12;7.30;;;2.90;;
2860;SDS011;1438;50.922;6.704;2023-08-06T13:43:38;9.70;;;4.20;;
2860;SDS011;1438;50.922;6.704;2023-08-06T13:46:04;3.50;;;3.00;;
2860;SDS011;1438;50.922;6.704;2023-08-06T13:48:29;8.67;;;2.80;;
2860;SDS011;1438;50.922;6.704;2023-08-06T13:50:55;2.73;;;1.63;;
2860;SDS011;1438;50.922;6.704;2023-08-06T13:53:21;3.13;;;1.47;;
2860;SDS011;1438;50.922;6.704;2023-08-06T13:55:46;3.00;;;1.43;;
2860;SDS011;1438;50.922;6.704;2023-08-06T13:58:12;3.13;;;1.07;;
2860;SDS011;1438;50.922;6.704;2023-08-06T14:00:38;4.43;;;1.27;;
2860;SDS011;1438;50.922;6.704;2023-08-06T14:03:03;7.03;;;1.27;;
2860;SDS011;1438;50.922;6.704;2023-08-06T14:05:29;3.23;;;1.30;;
2860;SDS011;1438;50.922;6.704;2023-08-06T14:07:54;2.20;;;1.40;;
2860;SDS011;1438;50.922;6.704;2023-08-06T14:10:20;2.13;;;1.57;;
2860;SDS011;1438;50.922;6.704;2023-08-06T14:12:45;4.60;;;1.17;;
2860;SDS011;1438;50.922;6.704;2023-08-06T14:15:11;1.67;;;0.97;;
2860;SDS011;1438;50.922;6.704;2023-08-06T14:17:37;4.10;;;1.40;;
2860;SDS011;1438;50.922;6.704;2023-08-06T14:20:03;3.13;;;0.93;;
2860;SDS011;1438;50.922;6.704;2023-08-06T14:22:29;1.80;;;1.07;;
2860;SDS011;1438;50.922;6.704;2023-08-06T14:24:56;4.13;;;1.30;;
2860;SDS011;1438;50.922;6.704;2023-08-06T14:27:23;1.70;;;0.90;;
2860;SDS011;1438;50.922;6.704;2023-08-06T14:29:48;4.23;;;0.90;;
2860;SDS011;1438;50.922;6.704;2023-08-06T14:32:14;4.03;;;1.80;;
2860;SDS011;1438;50.922;6.704;2023-08-06T14:34:42;1.33;;;0.97;;
2860;SDS011;1438;50.922;6.704;2023-08-06T14:37:09;2.20;;;1.30;;
2860;SDS011;1438;50.922;6.704;2023-08-06T14:39:35;2.13;;;1.07;;
2860;SDS011;1438;50.922;6.704;2023-08-06T14:42:00;3.00;;;1.20;;
2860;SDS011;1438;50.922;6.704;2023-08-06T14:44:27;2.80;;;0.80;;
2860;SDS011;1438;50.922;6.704;2023-08-06T14:46:52;2.97;;;0.97;;
2860;SDS011;1438;50.922;6.704;2023-08-06T14:49:18;1.23;;;0.80;;
2860;SDS011;1438;50.922;6.704;2023-08-06T14:51:43;3.37;;;0.90;;
2860;SDS011;1438;50.922;6.704;2023-08-06T14:54:09;2.50;;;1.20;;
2860;SDS011;1438;50.922;6.704;2023-08-06T14:56:35;1.80;;;0.70;;
2860;SDS011;1438;50.922;6.704;2023-08-06T14:59:00;1.50;;;0.90;;
2860;SDS011;1438;50.922;6.704;2023-08-06T15:01:26;1.30;;;0.80;;
2860;SDS011;1438;50.922;6.704;2023-08-06T15:03:52;1.77;;;0.70;;
2860;SDS011;1438;50.922;6.704;2023-08-06T15:06:17;1.80;;;0.80;;
2860;SDS011;1438;50.922;6.704;2023-08-06T15:08:43;1.83;;;0.80;;
2860;SDS011;1438;50.922;6.704;2023-08-06T15:11:10;1.00;;;0.77;;
2860;SDS011;1438;50.922;6.704;2023-08-06T15:13:37;1.47;;;0.77;;
2860;SDS011;1438;50.922;6.704;2023-08-06T15:16:03;1.10;;;0.80;;
2860;SDS011;1438;50.922;6.704;2023-08-06T15:18:29;0.73;;;0.60;;